sensor_id;sensor_type;location;lat;lon;timestamp;P1;durP1;ratioP1;P2;durP2;ratioP2
64500;SDS011;50874;24.150;-110.320;2022-12-10T00:01:34;126.32;;;11.75;;
64500;SDS011;50874;24.150;-110.320;2022-12-10T00:04:02;27.90;;;4.22;;
64500;SDS011;50874;24.150;-110.320;2022-12-10T00:06:31;54.20;;;5.60;;
64500;SDS011;50874;24.150;-110.320;2022-12-10T00:08:59;18.42;;;2.50;;
64500;SDS011;50874;24.150;-110.320;2022-12-10T00:11:30;26.73;;;2.85;;
64500;SDS011;50874;24.150;-110.320;2022-12-10T00:13:57;35.92;;;4.97;;
64500;SDS011;50874;24.150;-110.320;2022-12-10T00:16:25;14.85;;;4.30;;
64500;SDS011;50874;24.150;-110.320;2022-12-10T00:18:53;21.38;;;3.35;;
64500;SDS011;50874;24.150;-110.320;2022-12-10T00:21:22;20.73;;;3.53;;
64500;SDS011;50874;24.150;-110.320;2022-12-10T00:23:51;20.83;;;3.63;;
64500;SDS011;50874;24.150;-110.320;2022-12-10T00:26:24;20.70;;;3.20;;
64500;SDS011;50874;24.150;-110.320;2022-12-10T00:28:52;37.25;;;4.40;;
64500;SDS011;50874;24.150;-110.320;2022-12-10T00:31:23;24.60;;;3.30;;
64500;SDS011;50874;24.150;-110.320;2022-12-10T00:34:01;17.83;;;4.35;;
64500;SDS011;50874;24.150;-110.320;2022-12-10T00:36:30;69.65;;;6.95;;
64500;SDS011;50874;24.150;-110.320;2022-12-10T00:38:59;22.65;;;4.10;;
64500;SDS011;50874;24.150;-110.320;2022-12-10T00:41:27;19.38;;;2.70;;
64500;SDS011;50874;24.150;-110.320;2022-12-10T00:43:54;20.80;;;3.53;;
64500;SDS011;50874;24.150;-110.320;2022-12-10T00:46:20;21.50;;;2.45;;
64500;SDS011;50874;24.150;-110.320;2022-12-10T00:48:47;36.92;;;4.28;;
64500;SDS011;50874;24.150;-110.320;2022-12-10T00:51:14;16.02;;;3.13;;
64500;SDS011;50874;24.150;-110.320;2022-12-10T00:53:49;19.15;;;2.72;;
64500;SDS011;50874;24.150;-110.320;2022-12-10T00:56:17;14.63;;;3.45;;
64500;SDS011;50874;24.150;-110.320;2022-12-10T00:58:46;26.58;;;3.47;;
64500;SDS011;50874;24.150;-110.320;2022-12-10T01:01:21;22.90;;;2.85;;
64500;SDS011;50874;24.150;-110.320;2022-12-10T01:03:50;19.50;;;3.40;;
64500;SDS011;50874;24.150;-110.320;2022-12-10T01:06:29;18.33;;;2.08;;
64500;SDS011;50874;24.150;-110.320;2022-12-10T01:08:58;15.50;;;3.03;;
64500;SDS011;50874;24.150;-110.320;2022-12-10T01:11:30;16.98;;;3.05;;
64500;SDS011;50874;24.150;-110.320;2022-12-10T01:14:02;17.92;;;2.83;;
64500;SDS011;50874;24.150;-110.320;2022-12-10T01:16:29;18.30;;;2.47;;
64500;SDS011;50874;24.150;-110.320;2022-12-10T01:18:56;16.40;;;2.72;;
64500;SDS011;50874;24.150;-110.320;2022-12-10T01:21:24;12.07;;;2.45;;
64500;SDS011;50874;24.150;-110.320;2022-12-10T01:23:52;38.50;;;4.57;;
64500;SDS011;50874;24.150;-110.320;2022-12-10T01:26:23;23.80;;;3.75;;
64500;SDS011;50874;24.150;-110.320;2022-12-10T01:28:52;16.67;;;3.00;;
64500;SDS011;50874;24.150;-110.320;2022-12-10T01:31:20;16.23;;;2.67;;
64500;SDS011;50874;24.150;-110.320;2022-12-10T01:33:48;97.75;;;7.88;;
64500;SDS011;50874;24.150;-110.320;2022-12-10T01:36:19;8.13;;;2.08;;
64500;SDS011;50874;24.150;-110.320;2022-12-10T01:38:47;10.20;;;1.98;;
64500;SDS011;50874;24.150;-110.320;2022-12-10T01:41:15;10.65;;;2.83;;
64500;SDS011;50874;24.150;-110.320;2022-12-10T01:46:28;44.92;;;4.75;;
64500;SDS011;50874;24.150;-110.320;2022-12-10T01:49:01;25.05;;;2.47;;
64500;SDS011;50874;24.150;-110.320;2022-12-10T01:51:32;16.45;;;2.47;;
64500;SDS011;50874;24.150;-110.320;2022-12-10T01:54:01;14.45;;;2.90;;
64500;SDS011;50874;24.150;-110.320;2022-12-10T01:56:29;17.70;;;2.50;;
64500;SDS011;50874;24.150;-110.320;2022-12-10T01:59:00;12.43;;;2.03;;
64500;SDS011;50874;24.150;-110.320;2022-12-10T02:06:59;31.00;;;3.65;;
64500;SDS011;50874;24.150;-110.320;2022-12-10T02:09:42;37.47;;;5.93;;
64500;SDS011;50874;24.150;-110.320;2022-12-10T02:18:11;85.78;;;7.20;;
64500;SDS011;50874;24.150;-110.320;2022-12-10T02:20:45;10.20;;;2.50;;
64500;SDS011;50874;24.150;-110.320;2022-12-10T02:23:18;28.88;;;4.95;;
64500;SDS011;50874;24.150;-110.320;2022-12-10T02:26:14;19.30;;;3.15;;
64500;SDS011;50874;24.150;-110.320;2022-12-10T02:31:36;18.00;;;2.90;;
64500;SDS011;50874;24.150;-110.320;2022-12-10T02:34:04;14.27;;;3.03;;
64500;SDS011;50874;24.150;-110.320;2022-12-10T02:36:34;20.13;;;4.05;;
64500;SDS011;50874;24.150;-110.320;2022-12-10T02:39:05;29.15;;;4.57;;
64500;SDS011;50874;24.150;-110.320;2022-12-10T02:41:40;22.55;;;4.47;;
64500;SDS011;50874;24.150;-110.320;2022-12-10T02:44:11;39.67;;;4.22;;
64500;SDS011;50874;24.150;-110.320;2022-12-10T02:46:41;10.95;;;2.72;;
64500;SDS011;50874;24.150;-110.320;2022-12-10T02:49:10;20.05;;;2.53;;
64500;SDS011;50874;24.150;-110.320;2022-12-10T02:51:39;14.30;;;3.03;;
64500;SDS011;50874;24.150;-110.320;2022-12-10T02:54:07;20.50;;;2.67;;
64500;SDS011;50874;24.150;-110.320;2022-12-10T02:57:42;27.13;;;3.10;;
64500;SDS011;50874;24.150;-110.320;2022-12-10T03:00:16;18.80;;;2.88;;
64500;SDS011;50874;24.150;-110.320;2022-12-10T03:06:01;18.92;;;2.78;;
64500;SDS011;50874;24.150;-110.320;2022-12-10T03:08:51;15.30;;;2.30;;
64500;SDS011;50874;24.150;-110.320;2022-12-10T03:11:33;35.15;;;4.15;;
64500;SDS011;50874;24.150;-110.320;2022-12-10T03:16:43;35.00;;;11.65;;
64500;SDS011;50874;24.150;-110.320;2022-12-10T03:19:15;55.05;;;18.67;;
64500;SDS011;50874;24.150;-110.320;2022-12-10T03:21:46;15.63;;;7.50;;
64500;SDS011;50874;24.150;-110.320;2022-12-10T03:24:15;30.55;;;6.15;;
64500;SDS011;50874;24.150;-110.320;2022-12-10T03:26:43;19.42;;;3.22;;
64500;SDS011;50874;24.150;-110.320;2022-12-10T03:29:24;11.05;;;2.60;;
64500;SDS011;50874;24.150;-110.320;2022-12-10T03:32:04;47.65;;;4.43;;
64500;SDS011;50874;24.150;-110.320;2022-12-10T03:34:31;43.33;;;5.60;;
64500;SDS011;50874;24.150;-110.320;2022-12-10T03:36:59;15.60;;;2.90;;
64500;SDS011;50874;24.150;-110.320;2022-12-10T03:39:26;14.10;;;2.50;;
64500;SDS011;50874;24.150;-110.320;2022-12-10T03:41:53;18.42;;;2.80;;
64500;SDS011;50874;24.150;-110.320;2022-12-10T03:44:29;13.25;;;2.85;;
64500;SDS011;50874;24.150;-110.320;2022-12-10T03:46:58;22.27;;;3.83;;
64500;SDS011;50874;24.150;-110.320;2022-12-10T03:49:26;17.55;;;3.33;;
64500;SDS011;50874;24.150;-110.320;2022-12-10T03:51:52;21.30;;;3.13;;
64500;SDS011;50874;24.150;-110.320;2022-12-10T03:54:19;16.13;;;4.18;;
64500;SDS011;50874;24.150;-110.320;2022-12-10T03:56:46;27.35;;;4.70;;
64500;SDS011;50874;24.150;-110.320;2022-12-10T03:59:12;31.38;;;4.03;;
64500;SDS011;50874;24.150;-110.320;2022-12-10T04:01:39;16.00;;;4.28;;
64500;SDS011;50874;24.150;-110.320;2022-12-10T04:04:07;17.60;;;2.92;;
64500;SDS011;50874;24.150;-110.320;2022-12-10T04:06:34;16.25;;;3.33;;
64500;SDS011;50874;24.150;-110.320;2022-12-10T04:09:03;17.55;;;2.05;;
64500;SDS011;50874;24.150;-110.320;2022-12-10T04:11:30;12.93;;;2.53;;
64500;SDS011;50874;24.150;-110.320;2022-12-10T04:13:56;18.27;;;3.80;;
64500;SDS011;50874;24.150;-110.320;2022-12-10T04:16:41;16.73;;;3.17;;
64500;SDS011;50874;24.150;-110.320;2022-12-10T04:19:09;13.40;;;2.38;;
64500;SDS011;50874;24.150;-110.320;2022-12-10T04:21:37;19.92;;;2.88;;
64500;SDS011;50874;24.150;-110.320;2022-12-10T04:24:23;18.88;;;2.10;;
64500;SDS011;50874;24.150;-110.320;2022-12-10T04:27:16;19.67;;;4.00;;
64500;SDS011;50874;24.150;-110.320;2022-12-10T04:30:04;14.10;;;2.57;;
64500;SDS011;50874;24.150;-110.320;2022-12-10T04:32:32;14.15;;;1.80;;
64500;SDS011;50874;24.150;-110.320;2022-12-10T04:34:59;12.82;;;1.98;;
64500;SDS011;50874;24.150;-110.320;2022-12-10T04:37:26;13.40;;;1.90;;
64500;SDS011;50874;24.150;-110.320;2022-12-10T04:39:53;14.00;;;3.03;;
64500;SDS011;50874;24.150;-110.320;2022-12-10T04:42:20;12.40;;;2.30;;
64500;SDS011;50874;24.150;-110.320;2022-12-10T04:44:48;14.18;;;2.17;;
64500;SDS011;50874;24.150;-110.320;2022-12-10T04:47:14;17.02;;;2.55;;
64500;SDS011;50874;24.150;-110.320;2022-12-10T04:49:41;13.30;;;1.88;;
64500;SDS011;50874;24.150;-110.320;2022-12-10T04:52:09;15.13;;;2.20;;
64500;SDS011;50874;24.150;-110.320;2022-12-10T04:54:37;11.25;;;3.28;;
64500;SDS011;50874;24.150;-110.320;2022-12-10T04:57:04;12.93;;;1.90;;
64500;SDS011;50874;24.150;-110.320;2022-12-10T04:59:32;12.30;;;2.47;;
64500;SDS011;50874;24.150;-110.320;2022-12-10T05:01:58;12.30;;;2.75;;
64500;SDS011;50874;24.150;-110.320;2022-12-10T05:04:25;15.98;;;2.20;;
64500;SDS011;50874;24.150;-110.320;2022-12-10T05:06:51;12.02;;;1.38;;
64500;SDS011;50874;24.150;-110.320;2022-12-10T05:09:18;20.02;;;3.33;;
64500;SDS011;50874;24.150;-110.320;2022-12-10T05:11:44;20.48;;;1.98;;
64500;SDS011;50874;24.150;-110.320;2022-12-10T05:14:11;12.43;;;2.83;;
64500;SDS011;50874;24.150;-110.320;2022-12-10T05:16:39;10.73;;;1.98;;
64500;SDS011;50874;24.150;-110.320;2022-12-10T05:19:05;11.00;;;2.22;;
64500;SDS011;50874;24.150;-110.320;2022-12-10T05:21:32;13.73;;;2.97;;
64500;SDS011;50874;24.150;-110.320;2022-12-10T05:24:17;19.00;;;2.67;;
64500;SDS011;50874;24.150;-110.320;2022-12-10T05:26:44;15.65;;;2.80;;
64500;SDS011;50874;24.150;-110.320;2022-12-10T05:29:12;18.20;;;1.70;;
64500;SDS011;50874;24.150;-110.320;2022-12-10T05:31:38;12.98;;;2.67;;
64500;SDS011;50874;24.150;-110.320;2022-12-10T05:34:05;15.40;;;2.05;;
64500;SDS011;50874;24.150;-110.320;2022-12-10T05:36:33;8.60;;;1.67;;
64500;SDS011;50874;24.150;-110.320;2022-12-10T05:38:59;12.65;;;1.73;;
64500;SDS011;50874;24.150;-110.320;2022-12-10T05:41:27;9.20;;;2.30;;
64500;SDS011;50874;24.150;-110.320;2022-12-10T05:43:56;52.47;;;5.75;;
64500;SDS011;50874;24.150;-110.320;2022-12-10T05:46:24;9.27;;;1.40;;
64500;SDS011;50874;24.150;-110.320;2022-12-10T05:48:53;10.40;;;1.60;;
64500;SDS011;50874;24.150;-110.320;2022-12-10T05:51:20;5.57;;;1.92;;
64500;SDS011;50874;24.150;-110.320;2022-12-10T05:53:49;16.00;;;1.58;;
64500;SDS011;50874;24.150;-110.320;2022-12-10T05:56:17;10.75;;;1.77;;
64500;SDS011;50874;24.150;-110.320;2022-12-10T05:58:46;9.63;;;1.67;;
64500;SDS011;50874;24.150;-110.320;2022-12-10T06:01:15;8.00;;;2.45;;
64500;SDS011;50874;24.150;-110.320;2022-12-10T06:03:44;10.13;;;1.90;;
64500;SDS011;50874;24.150;-110.320;2022-12-10T06:06:10;23.42;;;2.25;;
64500;SDS011;50874;24.150;-110.320;2022-12-10T06:08:38;13.38;;;1.30;;
64500;SDS011;50874;24.150;-110.320;2022-12-10T06:11:06;5.75;;;1.30;;
64500;SDS011;50874;24.150;-110.320;2022-12-10T06:13:35;7.32;;;1.45;;
64500;SDS011;50874;24.150;-110.320;2022-12-10T06:16:06;9.82;;;1.42;;
64500;SDS011;50874;24.150;-110.320;2022-12-10T06:18:34;10.55;;;1.55;;
64500;SDS011;50874;24.150;-110.320;2022-12-10T06:21:04;7.78;;;1.35;;
64500;SDS011;50874;24.150;-110.320;2022-12-10T06:23:33;10.60;;;1.98;;
64500;SDS011;50874;24.150;-110.320;2022-12-10T06:26:04;10.80;;;2.13;;
64500;SDS011;50874;24.150;-110.320;2022-12-10T06:28:35;8.82;;;1.50;;
64500;SDS011;50874;24.150;-110.320;2022-12-10T06:31:02;15.02;;;2.00;;
64500;SDS011;50874;24.150;-110.320;2022-12-10T06:33:28;21.02;;;2.35;;
64500;SDS011;50874;24.150;-110.320;2022-12-10T06:35:55;31.13;;;4.05;;
64500;SDS011;50874;24.150;-110.320;2022-12-10T06:38:21;24.02;;;2.92;;
64500;SDS011;50874;24.150;-110.320;2022-12-10T06:40:48;18.30;;;2.47;;
64500;SDS011;50874;24.150;-110.320;2022-12-10T06:43:15;20.30;;;3.05;;
64500;SDS011;50874;24.150;-110.320;2022-12-10T06:45:41;23.23;;;3.30;;
64500;SDS011;50874;24.150;-110.320;2022-12-10T06:48:08;15.90;;;2.00;;
64500;SDS011;50874;24.150;-110.320;2022-12-10T06:50:35;12.60;;;1.80;;
64500;SDS011;50874;24.150;-110.320;2022-12-10T06:53:01;8.35;;;1.75;;
64500;SDS011;50874;24.150;-110.320;2022-12-10T06:55:28;11.77;;;1.83;;
64500;SDS011;50874;24.150;-110.320;2022-12-10T06:57:55;9.63;;;1.00;;
64500;SDS011;50874;24.150;-110.320;2022-12-10T07:00:21;5.90;;;1.20;;
64500;SDS011;50874;24.150;-110.320;2022-12-10T07:02:48;11.32;;;1.83;;
64500;SDS011;50874;24.150;-110.320;2022-12-10T07:05:15;6.75;;;1.33;;
64500;SDS011;50874;24.150;-110.320;2022-12-10T07:07:41;17.50;;;3.30;;
64500;SDS011;50874;24.150;-110.320;2022-12-10T07:10:08;12.60;;;1.63;;
64500;SDS011;50874;24.150;-110.320;2022-12-10T07:12:35;15.30;;;2.22;;
64500;SDS011;50874;24.150;-110.320;2022-12-10T07:15:01;17.90;;;2.00;;
64500;SDS011;50874;24.150;-110.320;2022-12-10T07:17:28;21.45;;;2.22;;
64500;SDS011;50874;24.150;-110.320;2022-12-10T07:19:55;13.85;;;1.88;;
64500;SDS011;50874;24.150;-110.320;2022-12-10T07:22:21;5.57;;;1.27;;
64500;SDS011;50874;24.150;-110.320;2022-12-10T07:24:48;9.13;;;1.30;;
64500;SDS011;50874;24.150;-110.320;2022-12-10T07:27:15;3.17;;;1.08;;
64500;SDS011;50874;24.150;-110.320;2022-12-10T07:29:43;16.45;;;2.03;;
64500;SDS011;50874;24.150;-110.320;2022-12-10T07:32:09;10.50;;;1.55;;
64500;SDS011;50874;24.150;-110.320;2022-12-10T07:34:36;7.43;;;1.20;;
64500;SDS011;50874;24.150;-110.320;2022-12-10T07:37:02;6.72;;;1.38;;
64500;SDS011;50874;24.150;-110.320;2022-12-10T07:39:29;11.80;;;2.25;;
64500;SDS011;50874;24.150;-110.320;2022-12-10T07:41:55;4.93;;;1.10;;
64500;SDS011;50874;24.150;-110.320;2022-12-10T07:44:23;10.63;;;1.40;;
64500;SDS011;50874;24.150;-110.320;2022-12-10T07:46:51;12.45;;;1.45;;
64500;SDS011;50874;24.150;-110.320;2022-12-10T07:49:19;8.02;;;1.42;;
64500;SDS011;50874;24.150;-110.320;2022-12-10T07:51:46;15.07;;;1.60;;
64500;SDS011;50874;24.150;-110.320;2022-12-10T07:54:16;24.10;;;3.47;;
64500;SDS011;50874;24.150;-110.320;2022-12-10T07:56:44;6.22;;;1.05;;
64500;SDS011;50874;24.150;-110.320;2022-12-10T07:59:10;9.18;;;1.80;;
64500;SDS011;50874;24.150;-110.320;2022-12-10T08:01:37;14.07;;;2.20;;
64500;SDS011;50874;24.150;-110.320;2022-12-10T08:04:04;4.70;;;1.15;;
64500;SDS011;50874;24.150;-110.320;2022-12-10T08:06:30;9.65;;;1.63;;
64500;SDS011;50874;24.150;-110.320;2022-12-10T08:08:57;6.63;;;1.40;;
64500;SDS011;50874;24.150;-110.320;2022-12-10T08:11:24;8.43;;;1.63;;
64500;SDS011;50874;24.150;-110.320;2022-12-10T08:13:51;24.33;;;1.90;;
64500;SDS011;50874;24.150;-110.320;2022-12-10T08:16:19;5.95;;;1.17;;
64500;SDS011;50874;24.150;-110.320;2022-12-10T08:18:57;12.35;;;2.10;;
64500;SDS011;50874;24.150;-110.320;2022-12-10T08:21:26;8.70;;;1.10;;
64500;SDS011;50874;24.150;-110.320;2022-12-10T08:23:54;7.13;;;1.67;;
64500;SDS011;50874;24.150;-110.320;2022-12-10T08:26:22;8.52;;;1.30;;
64500;SDS011;50874;24.150;-110.320;2022-12-10T08:28:50;8.50;;;1.45;;
64500;SDS011;50874;24.150;-110.320;2022-12-10T08:31:19;26.10;;;2.92;;
64500;SDS011;50874;24.150;-110.320;2022-12-10T08:33:46;11.73;;;2.00;;
64500;SDS011;50874;24.150;-110.320;2022-12-10T08:36:13;12.02;;;1.50;;
64500;SDS011;50874;24.150;-110.320;2022-12-10T08:38:41;13.75;;;1.40;;
64500;SDS011;50874;24.150;-110.320;2022-12-10T08:41:09;8.18;;;1.58;;
64500;SDS011;50874;24.150;-110.320;2022-12-10T08:43:40;11.35;;;1.55;;
64500;SDS011;50874;24.150;-110.320;2022-12-10T08:46:07;14.50;;;1.88;;
64500;SDS011;50874;24.150;-110.320;2022-12-10T08:48:34;9.40;;;1.27;;
64500;SDS011;50874;24.150;-110.320;2022-12-10T08:51:03;8.48;;;1.20;;
64500;SDS011;50874;24.150;-110.320;2022-12-10T08:53:31;12.70;;;1.63;;
64500;SDS011;50874;24.150;-110.320;2022-12-10T08:55:58;6.88;;;1.48;;
64500;SDS011;50874;24.150;-110.320;2022-12-10T08:58:24;8.15;;;1.48;;
64500;SDS011;50874;24.150;-110.320;2022-12-10T09:00:51;9.40;;;1.52;;
64500;SDS011;50874;24.150;-110.320;2022-12-10T09:03:17;8.32;;;1.10;;
64500;SDS011;50874;24.150;-110.320;2022-12-10T09:05:44;6.80;;;1.58;;
64500;SDS011;50874;24.150;-110.320;2022-12-10T09:08:10;4.85;;;1.20;;
64500;SDS011;50874;24.150;-110.320;2022-12-10T09:10:37;5.32;;;1.48;;
64500;SDS011;50874;24.150;-110.320;2022-12-10T09:13:05;9.38;;;1.85;;
64500;SDS011;50874;24.150;-110.320;2022-12-10T09:15:32;29.48;;;3.08;;
64500;SDS011;50874;24.150;-110.320;2022-12-10T09:17:58;36.95;;;2.60;;
64500;SDS011;50874;24.150;-110.320;2022-12-10T09:20:25;9.27;;;1.70;;
64500;SDS011;50874;24.150;-110.320;2022-12-10T09:22:51;5.55;;;0.88;;
64500;SDS011;50874;24.150;-110.320;2022-12-10T09:25:18;8.32;;;1.02;;
64500;SDS011;50874;24.150;-110.320;2022-12-10T09:27:46;16.50;;;1.20;;
64500;SDS011;50874;24.150;-110.320;2022-12-10T09:30:13;2.08;;;0.82;;
64500;SDS011;50874;24.150;-110.320;2022-12-10T09:32:40;11.88;;;1.25;;
64500;SDS011;50874;24.150;-110.320;2022-12-10T09:35:07;5.75;;;1.25;;
64500;SDS011;50874;24.150;-110.320;2022-12-10T09:37:33;7.70;;;1.80;;
64500;SDS011;50874;24.150;-110.320;2022-12-10T09:40:00;7.97;;;1.60;;
64500;SDS011;50874;24.150;-110.320;2022-12-10T09:50:59;7.88;;;2.20;;
64500;SDS011;50874;24.150;-110.320;2022-12-10T09:53:42;6.68;;;1.40;;
64500;SDS011;50874;24.150;-110.320;2022-12-10T09:56:22;11.27;;;1.85;;
64500;SDS011;50874;24.150;-110.320;2022-12-10T09:58:52;9.20;;;1.30;;
64500;SDS011;50874;24.150;-110.320;2022-12-10T10:01:19;4.80;;;1.23;;
64500;SDS011;50874;24.150;-110.320;2022-12-10T10:03:52;24.75;;;2.45;;
64500;SDS011;50874;24.150;-110.320;2022-12-10T10:06:19;10.00;;;1.83;;
64500;SDS011;50874;24.150;-110.320;2022-12-10T10:08:51;11.68;;;1.40;;
64500;SDS011;50874;24.150;-110.320;2022-12-10T10:11:26;11.98;;;2.08;;
64500;SDS011;50874;24.150;-110.320;2022-12-10T10:17:01;3.85;;;1.30;;
64500;SDS011;50874;24.150;-110.320;2022-12-10T10:19:34;10.77;;;1.73;;
64500;SDS011;50874;24.150;-110.320;2022-12-10T10:22:04;7.25;;;1.27;;
64500;SDS011;50874;24.150;-110.320;2022-12-10T10:24:34;15.10;;;1.80;;
64500;SDS011;50874;24.150;-110.320;2022-12-10T10:27:36;13.15;;;1.48;;
64500;SDS011;50874;24.150;-110.320;2022-12-10T10:29:58;9.55;;;1.58;;
64500;SDS011;50874;24.150;-110.320;2022-12-10T10:35:03;6.63;;;1.65;;
64500;SDS011;50874;24.150;-110.320;2022-12-10T10:37:38;8.63;;;1.38;;
64500;SDS011;50874;24.150;-110.320;2022-12-10T10:40:06;13.18;;;1.30;;
64500;SDS011;50874;24.150;-110.320;2022-12-10T10:42:51;12.30;;;3.90;;
64500;SDS011;50874;24.150;-110.320;2022-12-10T10:45:54;10.63;;;2.03;;
64500;SDS011;50874;24.150;-110.320;2022-12-10T10:48:33;6.53;;;1.48;;
64500;SDS011;50874;24.150;-110.320;2022-12-10T10:51:07;12.60;;;1.75;;
64500;SDS011;50874;24.150;-110.320;2022-12-10T10:53:47;11.02;;;1.58;;
64500;SDS011;50874;24.150;-110.320;2022-12-10T10:56:28;9.23;;;1.55;;
64500;SDS011;50874;24.150;-110.320;2022-12-10T11:01:48;10.85;;;1.52;;
64500;SDS011;50874;24.150;-110.320;2022-12-10T11:04:18;9.25;;;1.30;;
64500;SDS011;50874;24.150;-110.320;2022-12-10T11:07:13;9.95;;;1.38;;
64500;SDS011;50874;24.150;-110.320;2022-12-10T11:09:53;8.23;;;1.38;;
64500;SDS011;50874;24.150;-110.320;2022-12-10T11:15:00;8.73;;;1.60;;
64500;SDS011;50874;24.150;-110.320;2022-12-10T11:17:27;7.55;;;1.75;;
64500;SDS011;50874;24.150;-110.320;2022-12-10T11:19:56;5.63;;;1.25;;
64500;SDS011;50874;24.150;-110.320;2022-12-10T11:24:56;12.95;;;1.48;;
64500;SDS011;50874;24.150;-110.320;2022-12-10T11:30:09;13.80;;;2.65;;
64500;SDS011;50874;24.150;-110.320;2022-12-10T11:35:19;7.15;;;1.58;;
64500;SDS011;50874;24.150;-110.320;2022-12-10T11:38:06;7.13;;;1.20;;
64500;SDS011;50874;24.150;-110.320;2022-12-10T11:40:50;3.88;;;1.20;;
64500;SDS011;50874;24.150;-110.320;2022-12-10T11:43:32;3.83;;;1.33;;
64500;SDS011;50874;24.150;-110.320;2022-12-10T11:48:59;7.88;;;1.02;;
64500;SDS011;50874;24.150;-110.320;2022-12-10T12:00:26;12.77;;;1.80;;
64500;SDS011;50874;24.150;-110.320;2022-12-10T12:14:08;8.20;;;1.10;;
64500;SDS011;50874;24.150;-110.320;2022-12-10T12:16:42;5.82;;;1.10;;
64500;SDS011;50874;24.150;-110.320;2022-12-10T12:19:42;8.23;;;1.35;;
64500;SDS011;50874;24.150;-110.320;2022-12-10T12:22:22;9.10;;;1.50;;
64500;SDS011;50874;24.150;-110.320;2022-12-10T12:25:02;11.43;;;3.67;;
64500;SDS011;50874;24.150;-110.320;2022-12-10T12:35:40;13.73;;;1.77;;
64500;SDS011;50874;24.150;-110.320;2022-12-10T12:40:53;11.82;;;1.45;;
64500;SDS011;50874;24.150;-110.320;2022-12-10T12:46:01;13.27;;;1.80;;
64500;SDS011;50874;24.150;-110.320;2022-12-10T12:48:43;13.77;;;1.30;;
64500;SDS011;50874;24.150;-110.320;2022-12-10T12:51:32;6.60;;;1.08;;
64500;SDS011;50874;24.150;-110.320;2022-12-10T12:54:12;6.60;;;1.50;;
64500;SDS011;50874;24.150;-110.320;2022-12-10T12:56:59;6.07;;;1.58;;
64500;SDS011;50874;24.150;-110.320;2022-12-10T12:59:39;32.65;;;3.10;;
64500;SDS011;50874;24.150;-110.320;2022-12-10T13:05:27;15.88;;;2.75;;
64500;SDS011;50874;24.150;-110.320;2022-12-10T13:08:22;9.23;;;1.65;;
64500;SDS011;50874;24.150;-110.320;2022-12-10T13:13:24;7.88;;;2.20;;
64500;SDS011;50874;24.150;-110.320;2022-12-10T13:15:51;12.10;;;1.60;;
64500;SDS011;50874;24.150;-110.320;2022-12-10T13:18:20;10.93;;;1.60;;
64500;SDS011;50874;24.150;-110.320;2022-12-10T13:23:48;10.05;;;1.38;;
64500;SDS011;50874;24.150;-110.320;2022-12-10T13:26:27;15.23;;;2.05;;
64500;SDS011;50874;24.150;-110.320;2022-12-10T13:28:56;24.17;;;2.92;;
64500;SDS011;50874;24.150;-110.320;2022-12-10T13:31:44;13.35;;;2.30;;
64500;SDS011;50874;24.150;-110.320;2022-12-10T13:34:39;11.55;;;2.08;;
64500;SDS011;50874;24.150;-110.320;2022-12-10T13:37:16;7.40;;;1.55;;
64500;SDS011;50874;24.150;-110.320;2022-12-10T13:40:01;9.93;;;2.10;;
64500;SDS011;50874;24.150;-110.320;2022-12-10T13:42:38;13.77;;;1.70;;
64500;SDS011;50874;24.150;-110.320;2022-12-10T13:45:28;11.30;;;1.85;;
64500;SDS011;50874;24.150;-110.320;2022-12-10T13:51:07;13.98;;;1.60;;
64500;SDS011;50874;24.150;-110.320;2022-12-10T13:53:53;12.60;;;1.70;;
64500;SDS011;50874;24.150;-110.320;2022-12-10T14:07:57;21.50;;;2.38;;
64500;SDS011;50874;24.150;-110.320;2022-12-10T14:10:30;5.20;;;1.80;;
64500;SDS011;50874;24.150;-110.320;2022-12-10T14:13:04;10.88;;;1.60;;
64500;SDS011;50874;24.150;-110.320;2022-12-10T14:15:31;8.77;;;1.40;;
64500;SDS011;50874;24.150;-110.320;2022-12-10T14:18:04;15.73;;;2.40;;
64500;SDS011;50874;24.150;-110.320;2022-12-10T14:20:38;11.57;;;2.67;;
64500;SDS011;50874;24.150;-110.320;2022-12-10T14:23:28;8.63;;;2.08;;
64500;SDS011;50874;24.150;-110.320;2022-12-10T14:26:06;14.90;;;2.50;;
64500;SDS011;50874;24.150;-110.320;2022-12-10T14:28:47;8.95;;;1.80;;
64500;SDS011;50874;24.150;-110.320;2022-12-10T14:31:17;18.55;;;4.05;;
64500;SDS011;50874;24.150;-110.320;2022-12-10T14:33:50;46.03;;;4.68;;
64500;SDS011;50874;24.150;-110.320;2022-12-10T14:36:28;22.05;;;2.17;;
64500;SDS011;50874;24.150;-110.320;2022-12-10T14:39:00;19.65;;;3.13;;
64500;SDS011;50874;24.150;-110.320;2022-12-10T14:41:27;16.50;;;2.38;;
64500;SDS011;50874;24.150;-110.320;2022-12-10T14:43:57;16.65;;;2.13;;
64500;SDS011;50874;24.150;-110.320;2022-12-10T14:46:30;10.35;;;2.10;;
64500;SDS011;50874;24.150;-110.320;2022-12-10T14:48:57;16.63;;;3.00;;
64500;SDS011;50874;24.150;-110.320;2022-12-10T14:51:26;16.20;;;2.53;;
64500;SDS011;50874;24.150;-110.320;2022-12-10T14:53:58;10.38;;;1.70;;
64500;SDS011;50874;24.150;-110.320;2022-12-10T14:59:00;9.40;;;2.20;;
64500;SDS011;50874;24.150;-110.320;2022-12-10T15:01:32;12.40;;;2.63;;
64500;SDS011;50874;24.150;-110.320;2022-12-10T15:04:06;15.57;;;1.88;;
64500;SDS011;50874;24.150;-110.320;2022-12-10T15:06:46;13.60;;;2.10;;
64500;SDS011;50874;24.150;-110.320;2022-12-10T15:09:22;15.70;;;2.72;;
64500;SDS011;50874;24.150;-110.320;2022-12-10T15:11:54;17.67;;;2.47;;
64500;SDS011;50874;24.150;-110.320;2022-12-10T15:14:22;12.77;;;2.42;;
64500;SDS011;50874;24.150;-110.320;2022-12-10T15:16:50;16.40;;;2.20;;
64500;SDS011;50874;24.150;-110.320;2022-12-10T15:19:24;17.42;;;2.53;;
64500;SDS011;50874;24.150;-110.320;2022-12-10T15:21:58;14.32;;;2.85;;
64500;SDS011;50874;24.150;-110.320;2022-12-10T15:27:00;14.23;;;3.75;;
64500;SDS011;50874;24.150;-110.320;2022-12-10T15:29:31;42.28;;;4.03;;
64500;SDS011;50874;24.150;-110.320;2022-12-10T15:32:00;19.00;;;2.95;;
64500;SDS011;50874;24.150;-110.320;2022-12-10T15:34:34;8.02;;;2.10;;
64500;SDS011;50874;24.150;-110.320;2022-12-10T15:37:14;20.08;;;2.80;;
64500;SDS011;50874;24.150;-110.320;2022-12-10T15:39:51;36.78;;;4.88;;
64500;SDS011;50874;24.150;-110.320;2022-12-10T15:42:36;13.27;;;2.13;;
64500;SDS011;50874;24.150;-110.320;2022-12-10T15:45:21;7.63;;;1.50;;
64500;SDS011;50874;24.150;-110.320;2022-12-10T15:47:57;10.80;;;1.38;;
64500;SDS011;50874;24.150;-110.320;2022-12-10T15:50:24;15.25;;;2.13;;
64500;SDS011;50874;24.150;-110.320;2022-12-10T15:52:51;42.28;;;4.32;;
64500;SDS011;50874;24.150;-110.320;2022-12-10T15:55:18;22.17;;;3.22;;
64500;SDS011;50874;24.150;-110.320;2022-12-10T15:57:45;42.53;;;4.32;;
64500;SDS011;50874;24.150;-110.320;2022-12-10T16:00:18;15.98;;;3.58;;
64500;SDS011;50874;24.150;-110.320;2022-12-10T16:02:57;43.88;;;4.72;;
64500;SDS011;50874;24.150;-110.320;2022-12-10T16:05:32;5.75;;;1.35;;
64500;SDS011;50874;24.150;-110.320;2022-12-10T16:10:45;27.40;;;3.15;;
64500;SDS011;50874;24.150;-110.320;2022-12-10T16:13:17;23.02;;;3.30;;
64500;SDS011;50874;24.150;-110.320;2022-12-10T16:18:22;23.73;;;2.90;;
64500;SDS011;50874;24.150;-110.320;2022-12-10T16:20:50;13.07;;;2.25;;
64500;SDS011;50874;24.150;-110.320;2022-12-10T16:23:16;10.45;;;2.13;;